Rui Hai 1 — T8A2559 — position and weather

sailwx.info

Track history (hours):
 
Tides and Currents Weather Stations Pressure Air Temp Water Temp Dewpoint Dewpoint Depression Visibility Wind Speed Wind Dir Waves Ship Positions

Rui Hai 1

Last reported at 2017-Nov-15 10:25 UTC. Time now 2017-Nov-23 15:20 UTC.
Position N 21°33' E 113°32'.
Warning: this ship's position is 8 days out of date.

Length 97 m; draft 7.6 m.

Type: Ship. MMSI: 511475000.

Date/timePositionNaut miles runAvg speedWind from/ knotsBaromVisibWave heightAir tempDewpointWater temp
2017-Nov-15 10:25N 21°33' E 113°32'410.6
2017-Nov-15 09:59N 21°34' E 113°36'510.7
2017-Nov-15 09:30N 21°37' E 113°41'4610.6
2017-Nov-15 05:09N 21°60' E 114°24'210.5
2017-Nov-15 05:00N 22°01' E 114°26'510.4
2017-Nov-15 04:30N 22°04' E 114°30'510.6
2017-Nov-15 04:01N 22°07' E 114°35'510.4
2017-Nov-15 03:30N 22°10' E 114°39'510.4
2017-Nov-15 02:59N 22°13' E 114°44'510.6
2017-Nov-15 02:30N 22°15' E 114°49'611.2
2017-Nov-15 02:00N 22°17' E 114°55'5 9.9
2017-Nov-15 01:29N 22°19' E 115°00'20310.2
2017-Nov-14 05:33N 23°58' E 118°13'110.5
2017-Nov-14 05:26N 23°59' E 118°14'510.6
2017-Nov-14 05:00N 24°02' E 118°18'510.6
2017-Nov-14 04:30N 24°06' E 118°22'610.7
2017-Nov-14 04:00N 24°09' E 118°26'510.9
2017-Nov-14 03:30N 24°12' E 118°31'711.2
2017-Nov-14 02:52N 24°16' E 118°37'511.1
2017-Nov-14 02:28N 24°19' E 118°41'  
Track history (hours):
 
Tides and Currents Weather Stations Pressure Air Temp Water Temp Dewpoint Dewpoint Depression Visibility Wind Speed Wind Dir Waves Ship Positions

Rui Hai 1

Last reported at 2017-Nov-15 10:25 UTC. Time now 2017-Nov-23 15:20 UTC.
Position N 21°33' E 113°32'.
Warning: this ship's position is 8 days out of date.

Length 97 m; draft 7.6 m.

Type: Ship. MMSI: 511475000.

Date/timePositionNaut miles runAvg speedWind from/ knotsBaromVisibWave heightAir tempDewpointWater temp
2017-Nov-15 10:25N 21°33' E 113°32'410.6
2017-Nov-15 09:59N 21°34' E 113°36'510.7
2017-Nov-15 09:30N 21°37' E 113°41'4610.6
2017-Nov-15 05:09N 21°60' E 114°24'210.5
2017-Nov-15 05:00N 22°01' E 114°26'510.4
2017-Nov-15 04:30N 22°04' E 114°30'510.6
2017-Nov-15 04:01N 22°07' E 114°35'510.4
2017-Nov-15 03:30N 22°10' E 114°39'510.4
2017-Nov-15 02:59N 22°13' E 114°44'510.6
2017-Nov-15 02:30N 22°15' E 114°49'611.2
2017-Nov-15 02:00N 22°17' E 114°55'5 9.9
2017-Nov-15 01:29N 22°19' E 115°00'20310.2
2017-Nov-14 05:33N 23°58' E 118°13'110.5
2017-Nov-14 05:26N 23°59' E 118°14'510.6
2017-Nov-14 05:00N 24°02' E 118°18'510.6
2017-Nov-14 04:30N 24°06' E 118°22'610.7
2017-Nov-14 04:00N 24°09' E 118°26'510.9
2017-Nov-14 03:30N 24°12' E 118°31'711.2
2017-Nov-14 02:52N 24°16' E 118°37'511.1
2017-Nov-14 02:28N 24°19' E 118°41'  

Dump ship's entire track history